Time;durP1;ratioP1;P1;durP2;ratioP2;P2;SDS_P1;SDS_P2;PMS_P1;PMS_P2;Temp;Humidity;BMP_temperature;BMP_pressure;BME280_temperature;BME280_humidity;BME280_pressure;Samples;Min_cycle;Max_cycle;Signal;HPM_P1;HPM_P2
2021/12/05 00:23:45;;;;;;;9.87;7.50;;;0.40;93.80;;;;;;6242777;28;20194;-59
2021/12/05 00:26:55;;;;;;;10.87;9.40;;;0.40;93.90;;;;;;6242697;28;20202;-59
2021/12/05 00:30:17;;;;;;;15.00;10.00;;;0.40;94.10;;;;;;6242776;28;20195;-60
2021/12/05 00:43:30;;;;;;;9.53;7.77;;;0.40;94.40;;;;;;6241577;28;20192;-61
2021/12/05 00:59:42;;;;;;;9.63;8.20;;;0.40;94.90;;;;;;6249297;28;20195;-62
2021/12/05 01:15:20;;;;;;;9.13;7.50;;;0.50;95.20;;;;;;6226434;28;20292;-61
2021/12/05 01:18:21;;;;;;;7.20;5.83;;;0.50;95.20;;;;;;6229280;28;20252;-62
2021/12/05 01:21:25;;;;;;;6.17;5.57;;;0.50;95.20;;;;;;6225771;28;20235;-62
2021/12/05 01:27:41;;;;;;;8.83;6.87;;;0.50;95.30;;;;;;6204606;28;20216;-62
2021/12/05 01:37:20;;;;;;;12.40;8.67;;;0.50;95.30;;;;;;6224413;28;20213;-61
2021/12/05 01:50:56;;;;;;;12.60;10.07;;;0.50;95.40;;;;;;6216547;28;20184;-61
2021/12/05 02:30:12;;;;;;;12.40;9.57;;;0.60;95.60;;;;;;6233161;28;20250;-59
2021/12/05 02:39:33;;;;;;;12.73;9.17;;;0.50;95.70;;;;;;6235575;28;20187;-59
2021/12/05 02:42:38;;;;;;;11.40;8.17;;;0.50;95.70;;;;;;6221627;28;20188;-55
2021/12/05 02:45:45;;;;;;;10.60;7.40;;;0.50;95.70;;;;;;6220534;28;20195;-59
2021/12/05 02:48:46;;;;;;;11.83;8.13;;;0.40;95.70;;;;;;6232923;28;20233;-59
2021/12/05 02:51:56;;;;;;;11.40;8.77;;;0.50;95.80;;;;;;6211143;28;20192;-58
2021/12/05 02:55:11;;;;;;;9.30;7.20;;;0.60;95.80;;;;;;6250181;28;20199;-57
2021/12/05 03:01:36;;;;;;;10.63;8.03;;;0.60;95.70;;;;;;6244846;28;20214;-59
2021/12/05 03:04:43;;;;;;;13.70;11.23;;;0.50;95.70;;;;;;6234619;28;20183;-59
2021/12/05 03:07:47;;;;;;;12.53;11.03;;;0.50;95.70;;;;;;6247244;28;20203;-59
2021/12/05 03:10:49;;;;;;;11.60;8.93;;;0.50;95.70;;;;;;6220652;28;20229;-59
2021/12/05 03:13:50;;;;;;;9.07;7.97;;;0.50;95.60;;;;;;6243468;28;20191;-59
2021/12/05 03:16:55;;;;;;;8.90;7.03;;;0.50;95.70;;;;;;6228475;28;20207;-55
2021/12/05 03:19:57;;;;;;;7.90;6.50;;;0.40;95.70;;;;;;6211819;28;20192;-55
2021/12/05 03:22:58;;;;;;;9.30;7.50;;;0.40;95.70;;;;;;6213817;28;20188;-54
2021/12/05 03:26:07;;;;;;;6.83;6.13;;;0.40;95.70;;;;;;6243834;28;20183;-59
2021/12/05 03:29:11;;;;;;;8.10;5.93;;;0.40;95.70;;;;;;6246524;28;20229;-59
2021/12/05 03:32:12;;;;;;;6.40;5.77;;;0.50;95.80;;;;;;6251565;28;20245;-59
2021/12/05 03:35:13;;;;;;;8.47;6.93;;;0.50;95.80;;;;;;6251845;28;20186;-59
2021/12/05 03:38:15;;;;;;;6.97;5.90;;;0.50;95.80;;;;;;6212997;28;20215;-59
2021/12/05 03:41:17;;;;;;;8.03;7.13;;;0.50;95.80;;;;;;6226518;28;20208;-59
2021/12/05 03:44:22;;;;;;;7.07;6.37;;;0.60;95.90;;;;;;6210693;28;20193;-59
2021/12/05 03:47:27;;;;;;;8.73;7.80;;;0.60;95.90;;;;;;6210854;28;20188;-59
2021/12/05 03:50:30;;;;;;;9.57;7.10;;;0.70;95.70;;;;;;6227931;28;20180;-59
2021/12/05 03:53:34;;;;;;;9.90;8.27;;;0.60;95.60;;;;;;6189247;28;20221;-59
2021/12/05 03:56:37;;;;;;;10.33;8.57;;;0.60;95.60;;;;;;6202082;28;20243;-59
2021/12/05 03:59:39;;;;;;;10.23;8.37;;;0.60;95.60;;;;;;6242084;28;20195;-59
2021/12/05 04:02:40;;;;;;;10.40;7.67;;;0.60;95.70;;;;;;6226072;28;20194;-58
2021/12/05 04:05:41;;;;;;;7.63;6.80;;;0.60;95.70;;;;;;6215742;28;20194;-59
2021/12/05 04:08:43;;;;;;;9.43;7.57;;;0.60;95.70;;;;;;6226058;28;20275;-59
2021/12/05 04:11:58;;;;;;;7.53;6.70;;;0.60;95.70;;;;;;6226470;28;20198;-59
2021/12/05 04:15:06;;;;;;;9.90;5.90;;;0.60;95.70;;;;;;6226460;28;20188;-59
2021/12/05 04:18:07;;;;;;;8.57;7.17;;;0.50;95.60;;;;;;6238432;28;20220;-59
2021/12/05 04:21:09;;;;;;;7.00;5.80;;;0.50;95.70;;;;;;6209632;28;20286;-60
2021/12/05 04:24:13;;;;;;;9.90;6.23;;;0.50;95.70;;;;;;6226177;28;20176;-60
2021/12/05 04:27:14;;;;;;;8.67;6.80;;;0.50;95.80;;;;;;6242424;28;20255;-59
2021/12/05 04:30:19;;;;;;;7.83;5.80;;;0.50;95.80;;;;;;6226209;28;20191;-58
2021/12/05 04:33:21;;;;;;;7.50;5.93;;;0.50;95.80;;;;;;6225726;28;20192;-54
2021/12/05 04:36:23;;;;;;;8.90;5.50;;;0.50;95.80;;;;;;6225681;28;20238;-56
2021/12/05 04:39:27;;;;;;;7.47;5.93;;;0.60;95.90;;;;;;6208793;28;20195;-55
2021/12/05 04:42:29;;;;;;;8.30;6.23;;;0.60;95.90;;;;;;6225727;28;20183;-58
2021/12/05 04:45:31;;;;;;;7.37;6.10;;;0.60;95.90;;;;;;6209111;28;20231;-59
2021/12/05 04:48:36;;;;;;;9.20;6.43;;;0.70;95.90;;;;;;6224922;28;20192;-59
2021/12/05 04:51:42;;;;;;;9.70;6.30;;;0.70;95.80;;;;;;6225214;28;20172;-59
2021/12/05 04:54:43;;;;;;;12.37;8.33;;;0.70;95.80;;;;;;6225138;28;20191;-60
2021/12/05 04:57:45;;;;;;;9.27;6.90;;;0.70;95.80;;;;;;6225018;28;20230;-59
2021/12/05 05:00:47;;;;;;;6.60;5.90;;;0.80;95.80;;;;;;6224774;28;20195;-59
2021/12/05 05:03:48;;;;;;;8.07;7.20;;;0.70;95.70;;;;;;6225010;28;20207;-59
2021/12/05 05:06:49;;;;;;;6.70;5.63;;;0.80;95.70;;;;;;6225196;28;20194;-59
2021/12/05 05:10:06;;;;;;;7.53;6.13;;;0.70;95.60;;;;;;6240949;28;20194;-59
2021/12/05 05:13:08;;;;;;;8.07;6.03;;;0.70;95.70;;;;;;6232770;28;20276;-58
2021/12/05 05:16:10;;;;;;;7.40;6.23;;;0.80;95.70;;;;;;6198458;28;20219;-58
2021/12/05 05:19:13;;;;;;;9.00;6.10;;;0.80;95.70;;;;;;6184533;28;20192;-58
2021/12/05 05:51:12;;;;;;;9.83;7.53;;;0.80;95.70;;;;;;6225675;28;20206;-58
2021/12/05 05:54:13;;;;;;;11.43;8.47;;;0.80;95.70;;;;;;6224349;28;20230;-58
2021/12/05 06:00:41;;;;;;;10.57;8.20;;;0.80;95.70;;;;;;6243709;28;20233;-59
2021/12/05 06:03:42;;;;;;;11.83;9.17;;;0.80;95.70;;;;;;6238878;28;20230;-59
2021/12/05 06:06:43;;;;;;;14.97;9.47;;;0.70;95.80;;;;;;6206382;28;20199;-58
2021/12/05 06:09:44;;;;;;;11.40;7.57;;;0.80;95.90;;;;;;6224550;28;20175;-59
2021/12/05 06:12:45;;;;;;;9.33;7.83;;;0.70;95.80;;;;;;6223354;28;20198;-59
2021/12/05 06:15:47;;;;;;;9.97;7.43;;;0.70;95.80;;;;;;6204136;28;20221;-58
2021/12/05 06:18:48;;;;;;;7.33;5.73;;;0.70;95.80;;;;;;6196239;28;20195;-59
2021/12/05 06:21:49;;;;;;;10.10;6.50;;;0.70;95.90;;;;;;6226642;28;20222;-59
2021/12/05 06:24:51;;;;;;;6.80;5.83;;;0.70;95.90;;;;;;6207419;28;20203;-58
2021/12/05 06:27:54;;;;;;;5.93;5.33;;;0.70;95.90;;;;;;6216812;28;20329;-60
2021/12/05 06:31:42;;;;;;;10.57;6.47;;;0.70;95.90;;;;;;6224109;28;20241;-59
2021/12/05 06:37:48;;;;;;;8.63;6.30;;;0.80;96.00;;;;;;6224818;28;20220;-60
2021/12/05 06:47:12;;;;;;;7.13;6.00;;;0.80;96.00;;;;;;6243743;28;20209;-59
2021/12/05 06:50:13;;;;;;;10.83;7.20;;;0.90;96.10;;;;;;6209881;28;20210;-59
2021/12/05 06:53:14;;;;;;;7.43;6.00;;;0.90;96.00;;;;;;6208861;28;20198;-59
2021/12/05 06:56:16;;;;;;;7.60;6.43;;;0.90;96.00;;;;;;6222869;28;20247;-59
2021/12/05 06:59:18;;;;;;;9.33;7.00;;;0.90;95.90;;;;;;6223164;28;20214;-59
2021/12/05 07:02:20;;;;;;;8.13;6.27;;;0.90;95.90;;;;;;6223578;28;20230;-59
2021/12/05 07:08:42;;;;;;;11.73;9.50;;;0.90;95.90;;;;;;6228317;28;20188;-59
2021/12/05 07:24:46;;;;;;;8.00;7.20;;;0.90;95.80;;;;;;6219632;28;20183;-59
2021/12/05 07:40:47;;;;;;;7.83;6.13;;;1.00;95.80;;;;;;6243604;28;20180;-60
2021/12/05 07:43:48;;;;;;;7.80;6.67;;;1.00;95.80;;;;;;6212628;28;20191;-60
2021/12/05 07:46:49;;;;;;;11.47;8.13;;;1.00;95.80;;;;;;6211248;28;20206;-60
2021/12/05 07:49:52;;;;;;;11.03;7.50;;;1.10;95.80;;;;;;6226596;28;20198;-60
2021/12/05 07:52:59;;;;;;;10.70;6.80;;;1.10;95.90;;;;;;6226865;28;20286;-60
2021/12/05 07:56:09;;;;;;;8.13;6.60;;;1.10;95.90;;;;;;6226442;28;20278;-60
2021/12/05 08:16:01;;;;;;;9.33;7.23;;;1.30;95.60;;;;;;6218585;28;20216;-63
2021/12/05 08:19:02;;;;;;;10.03;7.57;;;1.40;95.60;;;;;;6198577;28;20192;-63
2021/12/05 08:22:03;;;;;;;9.13;7.20;;;1.40;95.60;;;;;;6201996;28;20185;-63
2021/12/05 08:25:12;;;;;;;7.13;6.00;;;1.40;95.50;;;;;;6201708;28;20199;-63
2021/12/05 08:34:51;;;;;;;7.87;6.33;;;1.40;95.40;;;;;;6227727;28;20226;-63
2021/12/05 08:38:38;;;;;;;7.87;6.10;;;1.40;95.40;;;;;;6242348;28;20306;-63
2021/12/05 09:24:53;;;;;;;10.73;8.03;;;1.30;96.00;;;;;;6243730;28;20191;-58
2021/12/05 09:31:06;;;;;;;9.57;7.53;;;1.30;96.00;;;;;;6237347;28;20197;-59
2021/12/05 10:14:12;;;;;;;10.70;7.27;;;1.00;96.10;;;;;;6242996;28;20195;-62
2021/12/05 10:35:21;;;;;;;13.87;9.87;;;0.90;96.20;;;;;;6231650;28;20192;-61
2021/12/05 10:38:14;;;;;;;14.07;10.57;;;1.00;96.20;;;;;;6240796;28;20217;-62
2021/12/05 10:41:45;;;;;;;16.03;11.67;;;1.00;96.20;;;;;;6212443;28;20190;-61
2021/12/05 10:44:45;;;;;;;12.70;10.10;;;0.90;96.10;;;;;;6243643;28;20245;-62
2021/12/05 10:47:52;;;;;;;17.20;12.13;;;0.90;96.20;;;;;;6218830;28;20201;-62
2021/12/05 10:51:06;;;;;;;15.93;13.20;;;0.90;96.20;;;;;;6245552;28;20234;-61
2021/12/05 10:54:34;;;;;;;21.23;14.63;;;1.00;96.20;;;;;;6212758;28;20198;-61
2021/12/05 10:57:40;;;;;;;15.43;12.00;;;1.10;96.20;;;;;;6227288;28;20236;-62
2021/12/05 11:00:41;;;;;;;23.30;15.23;;;1.00;96.10;;;;;;6191055;28;20211;-63
2021/12/05 11:03:43;;;;;;;23.40;16.70;;;1.00;96.10;;;;;;6219437;28;20205;-62
2021/12/05 11:06:57;;;;;;;19.13;14.90;;;0.90;96.10;;;;;;6210155;28;20200;-61
2021/12/05 11:09:59;;;;;;;24.43;16.73;;;0.90;96.10;;;;;;6208907;28;20199;-60
2021/12/05 11:13:00;;;;;;;28.77;19.33;;;0.90;96.00;;;;;;6213610;28;20205;-62
2021/12/05 11:16:01;;;;;;;21.13;15.33;;;0.90;96.10;;;;;;6211087;28;20227;-60
2021/12/05 11:19:18;;;;;;;19.57;16.03;;;0.90;96.10;;;;;;6235871;28;20214;-61
2021/12/05 11:22:21;;;;;;;17.83;14.07;;;0.90;96.10;;;;;;6223649;28;20192;-63
2021/12/05 11:25:27;;;;;;;16.40;12.40;;;1.00;96.20;;;;;;6227380;28;20183;-62
2021/12/05 11:28:28;;;;;;;16.90;13.13;;;1.00;96.20;;;;;;6224571;28;20195;-62
2021/12/05 11:31:31;;;;;;;17.50;13.57;;;1.00;96.20;;;;;;6186901;28;20215;-62
2021/12/05 11:34:32;;;;;;;17.97;12.47;;;1.00;96.20;;;;;;6212539;28;20195;-62
2021/12/05 11:37:53;;;;;;;14.20;10.77;;;1.00;96.20;;;;;;6194348;28;20235;-61
2021/12/05 11:41:08;;;;;;;15.40;11.03;;;1.00;96.20;;;;;;6233436;28;20191;-61
2021/12/05 11:44:20;;;;;;;15.13;11.13;;;1.00;96.20;;;;;;6202837;28;20181;-61
2021/12/05 11:47:23;;;;;;;19.43;14.50;;;1.00;96.20;;;;;;6202951;28;20192;-60
2021/12/05 11:50:35;;;;;;;19.57;15.00;;;1.00;96.20;;;;;;6204264;28;20261;-61
2021/12/05 11:53:51;;;;;;;16.77;13.20;;;0.90;96.00;;;;;;6227691;28;20195;-61
2021/12/05 11:57:03;;;;;;;19.20;14.93;;;0.90;96.10;;;;;;6246869;28;20239;-61
2021/12/05 12:00:17;;;;;;;16.73;13.40;;;0.90;96.10;;;;;;6208777;28;20191;-61
2021/12/05 12:03:33;;;;;;;17.20;13.90;;;0.80;96.00;;;;;;6231246;28;20229;-62
2021/12/05 12:06:35;;;;;;;20.20;15.17;;;0.80;96.10;;;;;;6217291;28;20237;-64
2021/12/05 12:09:36;;;;;;;15.47;13.37;;;0.90;96.20;;;;;;6242353;28;21372;-64
2021/12/05 12:12:39;;;;;;;17.13;13.87;;;0.80;96.20;;;;;;6253315;28;20256;-62
2021/12/05 12:15:42;;;;;;;16.13;12.53;;;0.90;96.20;;;;;;6262384;28;20198;-59
2021/12/05 12:18:47;;;;;;;18.77;15.53;;;0.90;96.20;;;;;;6207862;28;20192;-60
2021/12/05 12:21:52;;;;;;;15.57;13.50;;;0.90;96.20;;;;;;6227568;28;20416;-59
2021/12/05 12:25:00;;;;;;;11.83;9.57;;;1.00;96.20;;;;;;6249178;28;20210;-60
2021/12/05 12:28:01;;;;;;;11.50;10.30;;;1.10;96.30;;;;;;6214948;28;20200;-59
2021/12/05 12:31:09;;;;;;;13.77;11.03;;;1.10;96.30;;;;;;6236097;28;20187;-60
2021/12/05 12:34:15;;;;;;;12.10;10.30;;;1.20;96.30;;;;;;6224325;28;20199;-64
2021/12/05 12:37:16;;;;;;;17.27;11.97;;;1.30;96.40;;;;;;6235510;28;20400;-62
2021/12/05 12:40:40;;;;;;;14.60;12.07;;;1.30;96.30;;;;;;6225049;28;20195;-63
2021/12/05 12:43:58;;;;;;;14.73;10.33;;;1.40;96.20;;;;;;6237540;28;20238;-61
2021/12/05 12:47:02;;;;;;;12.77;9.97;;;1.40;96.20;;;;;;6241953;28;20215;-59
2021/12/05 12:50:25;;;;;;;19.63;13.67;;;1.50;96.30;;;;;;6224944;28;20203;-60
2021/12/05 12:53:28;;;;;;;14.40;12.07;;;1.60;96.20;;;;;;6223303;28;20191;-60
2021/12/05 12:56:30;;;;;;;16.23;12.70;;;1.60;96.20;;;;;;6200368;28;20305;-60
2021/12/05 12:59:35;;;;;;;13.47;9.73;;;1.60;96.10;;;;;;6195073;28;20206;-60
2021/12/05 13:12:15;;;;;;;13.20;10.53;;;1.80;96.00;;;;;;6252111;28;20195;-60
2021/12/05 13:15:30;;;;;;;10.10;8.60;;;1.80;95.90;;;;;;6232917;28;20194;-61
2021/12/05 13:18:38;;;;;;;9.20;8.17;;;1.80;96.00;;;;;;6241299;28;20226;-61
2021/12/05 13:21:43;;;;;;;12.17;9.67;;;1.90;96.00;;;;;;6217015;28;20199;-61
2021/12/05 13:24:46;;;;;;;10.20;9.10;;;1.90;95.90;;;;;;6225495;28;20245;-61
2021/12/05 13:27:47;;;;;;;11.73;8.93;;;1.90;95.70;;;;;;6224485;28;20191;-61
2021/12/05 13:30:48;;;;;;;10.90;8.43;;;1.80;95.50;;;;;;6224077;28;20249;-61
2021/12/05 13:33:49;;;;;;;8.57;7.63;;;1.70;95.50;;;;;;6224115;28;20284;-61
2021/12/05 13:37:01;;;;;;;8.77;7.03;;;1.70;95.60;;;;;;6221200;28;20226;-61
2021/12/05 13:40:13;;;;;;;9.27;7.93;;;1.70;95.70;;;;;;6226099;28;20246;-61
2021/12/05 13:43:28;;;;;;;9.70;8.13;;;1.80;95.80;;;;;;6224500;28;20326;-61
2021/12/05 13:46:30;;;;;;;7.80;6.47;;;1.80;95.70;;;;;;6240281;28;20196;-61
2021/12/05 13:49:33;;;;;;;7.40;5.83;;;1.70;95.70;;;;;;6224114;28;20262;-61
2021/12/05 13:52:36;;;;;;;6.23;5.60;;;1.80;95.70;;;;;;6232410;28;20271;-60
2021/12/05 13:56:26;;;;;;;8.77;6.17;;;1.80;95.70;;;;;;6217947;28;20222;-61
2021/12/05 13:59:26;;;;;;;7.70;6.53;;;1.70;95.70;;;;;;6235349;28;20215;-62
2021/12/05 14:02:56;;;;;;;7.17;5.80;;;1.70;95.70;;;;;;6240914;28;20195;-62
2021/12/05 14:05:56;;;;;;;21.10;10.60;;;1.70;95.70;;;;;;6224555;28;20222;-62
2021/12/05 14:09:46;;;;;;;26.03;13.43;;;1.60;95.70;;;;;;6207313;28;20187;-62
2021/12/05 14:12:47;;;;;;;16.00;9.93;;;1.60;95.80;;;;;;6221384;28;20285;-61
2021/12/05 14:15:57;;;;;;;10.80;8.03;;;1.60;95.80;;;;;;6213177;28;20212;-62
2021/12/05 14:18:58;;;;;;;10.17;7.33;;;1.50;95.70;;;;;;6218530;28;20195;-61
2021/12/05 14:22:01;;;;;;;12.57;8.13;;;1.50;95.80;;;;;;6250473;28;20198;-62
2021/12/05 14:25:07;;;;;;;12.70;8.60;;;1.50;95.90;;;;;;6237068;28;20186;-64
2021/12/05 14:28:08;;;;;;;10.87;9.20;;;1.50;95.90;;;;;;6218536;28;20202;-63
2021/12/05 14:31:09;;;;;;;10.43;8.93;;;1.50;95.90;;;;;;6204106;28;20198;-64
2021/12/05 14:34:11;;;;;;;13.73;10.30;;;1.60;95.70;;;;;;6208816;28;20214;-61
2021/12/05 14:37:16;;;;;;;9.23;8.20;;;1.60;95.70;;;;;;6238002;28;20226;-62
2021/12/05 14:40:21;;;;;;;10.17;8.40;;;1.60;95.70;;;;;;6228428;28;20195;-62
2021/12/05 14:43:21;;;;;;;10.50;7.73;;;1.50;95.60;;;;;;6239038;28;20195;-62
2021/12/05 14:46:22;;;;;;;9.57;8.10;;;1.40;95.70;;;;;;6205302;28;20197;-62
2021/12/05 14:49:30;;;;;;;8.10;7.23;;;1.40;95.80;;;;;;6220403;28;20608;-63
2021/12/05 14:52:34;;;;;;;10.17;7.93;;;1.50;95.80;;;;;;6231626;28;20194;-62
2021/12/05 14:55:36;;;;;;;8.57;7.67;;;1.40;95.80;;;;;;6235703;28;20230;-62
2021/12/05 14:58:38;;;;;;;9.53;7.80;;;1.40;95.90;;;;;;6214058;28;20237;-62
2021/12/05 15:01:41;;;;;;;10.93;8.80;;;1.30;95.70;;;;;;6228276;28;20329;-63
2021/12/05 15:04:48;;;;;;;10.17;8.83;;;1.30;95.70;;;;;;6222687;28;20267;-65
2021/12/05 15:07:49;;;;;;;10.90;8.00;;;1.30;95.90;;;;;;6227557;28;20275;-67
2021/12/05 15:10:58;;;;;;;9.57;7.63;;;1.30;95.90;;;;;;6227457;28;20268;-62
2021/12/05 15:14:04;;;;;;;12.53;9.03;;;1.30;96.00;;;;;;6238083;28;20215;-65
2021/12/05 15:17:12;;;;;;;11.50;8.40;;;1.30;96.10;;;;;;6252193;28;20213;-62
2021/12/05 15:20:19;;;;;;;10.53;8.53;;;1.30;96.00;;;;;;6238675;28;20200;-63
2021/12/05 15:23:21;;;;;;;8.73;7.63;;;1.40;96.00;;;;;;6246008;28;20198;-62
2021/12/05 15:26:30;;;;;;;13.80;8.77;;;1.40;95.90;;;;;;6241280;28;20206;-61
2021/12/05 15:29:31;;;;;;;10.10;8.83;;;1.40;96.00;;;;;;6225443;28;20204;-61
2021/12/05 15:32:33;;;;;;;11.30;7.70;;;1.50;95.90;;;;;;6229049;28;20199;-62
2021/12/05 15:35:34;;;;;;;11.60;8.67;;;1.40;95.60;;;;;;6233061;28;20198;-62
2021/12/05 15:38:35;;;;;;;13.13;10.90;;;1.40;95.70;;;;;;6210855;28;20226;-62
2021/12/05 15:41:36;;;;;;;14.00;9.53;;;1.30;95.80;;;;;;6243105;28;20199;-62
2021/12/05 15:44:39;;;;;;;11.00;8.67;;;1.30;95.80;;;;;;6226938;28;20198;-63
2021/12/05 15:47:40;;;;;;;11.70;9.07;;;1.30;95.90;;;;;;6211119;28;20203;-62
2021/12/05 15:50:41;;;;;;;11.13;8.80;;;1.30;95.90;;;;;;6226249;28;20206;-62
2021/12/05 15:53:42;;;;;;;12.43;10.07;;;1.30;95.90;;;;;;6227175;28;20245;-62
2021/12/05 15:56:44;;;;;;;10.80;8.47;;;1.30;95.90;;;;;;6226739;28;20249;-62
2021/12/05 15:59:46;;;;;;;10.57;8.70;;;1.30;96.00;;;;;;6222420;28;20196;-62
2021/12/05 16:02:55;;;;;;;9.13;7.50;;;1.30;96.20;;;;;;6244093;28;20196;-62
2021/12/05 16:06:00;;;;;;;10.70;8.13;;;1.30;96.10;;;;;;6226622;28;20209;-62
2021/12/05 16:09:18;;;;;;;10.00;7.27;;;1.30;96.20;;;;;;6226382;28;20203;-62
2021/12/05 16:12:20;;;;;;;12.43;8.60;;;1.30;96.20;;;;;;6229675;28;20188;-62
2021/12/05 16:15:27;;;;;;;10.23;8.20;;;1.30;96.20;;;;;;6225894;28;20267;-62
2021/12/05 16:18:33;;;;;;;13.57;9.60;;;1.30;96.10;;;;;;6226360;28;20211;-63
2021/12/05 16:21:36;;;;;;;15.60;11.40;;;1.30;96.20;;;;;;6253363;28;20195;-62
2021/12/05 16:24:40;;;;;;;13.97;10.80;;;1.30;96.10;;;;;;6242325;28;20190;-63
2021/12/05 16:27:53;;;;;;;12.67;10.13;;;1.30;96.10;;;;;;6226191;28;20198;-62
2021/12/05 16:31:05;;;;;;;12.17;10.07;;;1.30;96.00;;;;;;6242275;28;20198;-62
2021/12/05 16:34:10;;;;;;;12.40;10.17;;;1.30;96.10;;;;;;6225960;28;20183;-62
2021/12/05 16:37:12;;;;;;;11.20;9.77;;;1.30;96.10;;;;;;6224015;28;20275;-61
2021/12/05 16:40:13;;;;;;;13.43;9.70;;;1.30;96.20;;;;;;6222162;28;20191;-61
2021/12/05 16:43:17;;;;;;;11.73;8.60;;;1.30;96.20;;;;;;6225979;28;20249;-61
2021/12/05 16:46:25;;;;;;;11.83;9.07;;;1.30;96.20;;;;;;6225336;28;20289;-61
2021/12/05 16:49:36;;;;;;;10.43;8.63;;;1.30;96.10;;;;;;6208677;28;20199;-61
2021/12/05 16:52:44;;;;;;;12.63;9.87;;;1.10;96.00;;;;;;6225264;28;20294;-61
2021/12/05 16:55:56;;;;;;;12.27;9.40;;;1.10;96.10;;;;;;6221168;28;20223;-61
2021/12/05 16:59:31;;;;;;;14.50;10.70;;;1.20;96.20;;;;;;6224797;28;20203;-61
2021/12/05 17:02:53;;;;;;;14.30;10.87;;;1.20;96.30;;;;;;6249260;28;20199;-61
2021/12/05 17:06:02;;;;;;;12.57;10.53;;;1.20;96.10;;;;;;6228200;28;20191;-61
2021/12/05 17:09:11;;;;;;;13.30;10.67;;;1.20;96.20;;;;;;6234862;28;20179;-61
2021/12/05 17:12:29;;;;;;;17.97;14.33;;;1.30;96.20;;;;;;6249245;28;20185;-61
2021/12/05 17:15:31;;;;;;;16.90;13.07;;;1.30;96.20;;;;;;6213623;28;20219;-60
2021/12/05 17:18:41;;;;;;;15.53;12.70;;;1.30;96.10;;;;;;6249430;28;20267;-63
2021/12/05 17:21:49;;;;;;;15.27;12.43;;;1.20;96.10;;;;;;6224898;28;20192;-62
2021/12/05 17:24:51;;;;;;;15.97;13.47;;;1.20;96.00;;;;;;6218789;28;20188;-62
2021/12/05 17:27:52;;;;;;;23.03;16.60;;;1.10;96.10;;;;;;6214323;28;20198;-62
2021/12/05 17:30:59;;;;;;;25.93;18.57;;;1.20;96.20;;;;;;6207502;28;20202;-62
2021/12/05 17:34:04;;;;;;;23.03;19.30;;;1.20;96.20;;;;;;6223890;28;20197;-62
2021/12/05 17:37:13;;;;;;;21.97;16.97;;;1.10;96.10;;;;;;6220804;28;20281;-63
2021/12/05 17:40:14;;;;;;;20.43;15.27;;;1.10;96.10;;;;;;6234118;28;20226;-62
2021/12/05 17:43:15;;;;;;;21.50;17.30;;;1.10;96.20;;;;;;6207312;28;20248;-63
2021/12/05 17:46:16;;;;;;;19.17;14.47;;;1.20;96.30;;;;;;6226589;28;20205;-62
2021/12/05 17:49:20;;;;;;;25.87;18.13;;;1.20;96.30;;;;;;6207188;28;20205;-62
2021/12/05 17:52:24;;;;;;;23.37;16.57;;;1.30;96.50;;;;;;6224867;28;20278;-62
2021/12/05 17:55:30;;;;;;;18.40;13.70;;;1.30;96.30;;;;;;6207998;28;20223;-62
2021/12/05 17:58:54;;;;;;;18.37;13.90;;;1.30;96.20;;;;;;6207616;28;20229;-62
2021/12/05 18:05:31;;;;;;;19.87;14.23;;;1.30;96.20;;;;;;6240815;28;20200;-63
2021/12/05 18:08:32;;;;;;;21.90;14.93;;;1.30;96.30;;;;;;6248504;28;20202;-64
2021/12/05 18:11:35;;;;;;;17.50;13.67;;;1.30;96.30;;;;;;6231919;28;20190;-63
2021/12/05 18:14:36;;;;;;;15.07;13.27;;;1.30;96.20;;;;;;6232132;28;20191;-62
2021/12/05 18:17:37;;;;;;;19.10;14.03;;;1.30;96.20;;;;;;6190883;28;20214;-63
2021/12/05 18:20:38;;;;;;;17.93;14.30;;;1.20;96.20;;;;;;6192084;28;20266;-61
2021/12/05 18:23:39;;;;;;;18.23;14.17;;;1.30;96.20;;;;;;6208699;28;20246;-61
2021/12/05 18:26:42;;;;;;;16.70;13.50;;;1.20;96.10;;;;;;6229181;28;20202;-61
2021/12/05 18:29:43;;;;;;;21.90;17.20;;;1.20;96.10;;;;;;6193934;28;20289;-61
2021/12/05 18:32:44;;;;;;;19.33;15.03;;;1.10;96.10;;;;;;6196313;28;20198;-61
2021/12/05 18:35:46;;;;;;;20.60;15.63;;;1.10;96.10;;;;;;6226127;28;20199;-61
2021/12/05 18:38:48;;;;;;;20.37;15.17;;;1.10;96.10;;;;;;6225757;28;20214;-62
2021/12/05 18:41:52;;;;;;;19.43;14.53;;;1.00;96.10;;;;;;6206966;28;20210;-62
2021/12/05 18:44:59;;;;;;;18.07;13.40;;;1.00;96.10;;;;;;6212930;28;20199;-62
2021/12/05 18:48:01;;;;;;;17.80;12.93;;;0.90;96.10;;;;;;6235626;28;20199;-63
2021/12/05 18:51:02;;;;;;;18.57;14.53;;;0.90;96.20;;;;;;6190954;28;20187;-62
2021/12/05 18:54:04;;;;;;;24.13;16.40;;;0.90;96.20;;;;;;6195026;28;20198;-62
2021/12/05 18:57:05;;;;;;;24.27;16.53;;;1.00;96.30;;;;;;6193223;28;20238;-63
2021/12/05 19:00:13;;;;;;;18.87;15.93;;;1.00;96.30;;;;;;6198685;28;20186;-62
2021/12/05 19:06:43;;;;;;;28.50;19.47;;;1.00;96.30;;;;;;6211829;28;20206;-63
2021/12/05 19:12:50;;;;;;;23.10;16.17;;;1.00;96.50;;;;;;6248293;28;20225;-64
2021/12/05 19:15:51;;;;;;;25.50;19.50;;;1.10;96.50;;;;;;6203389;28;20258;-63
2021/12/05 19:18:52;;;;;;;21.23;15.47;;;1.10;96.50;;;;;;6189437;28;20289;-63
2021/12/05 19:21:55;;;;;;;26.03;19.17;;;1.10;96.40;;;;;;6227617;28;20189;-62
2021/12/05 19:24:56;;;;;;;23.53;16.43;;;1.10;96.50;;;;;;6233398;28;20226;-62
2021/12/05 19:27:59;;;;;;;23.03;16.83;;;1.10;96.50;;;;;;6220023;28;20192;-62
2021/12/05 19:31:01;;;;;;;20.97;16.17;;;1.20;96.50;;;;;;6219360;28;20191;-63
2021/12/05 19:34:03;;;;;;;20.03;14.40;;;1.20;96.40;;;;;;6222746;28;20203;-62
2021/12/05 19:37:05;;;;;;;20.77;14.07;;;1.20;96.50;;;;;;6227437;28;20218;-61
2021/12/05 19:40:08;;;;;;;20.03;15.20;;;1.30;96.50;;;;;;6228016;28;20191;-61
2021/12/05 19:43:11;;;;;;;19.10;13.77;;;1.30;96.40;;;;;;6241978;28;20233;-60
2021/12/05 19:46:16;;;;;;;22.90;16.30;;;1.20;96.30;;;;;;6218960;28;20179;-61
2021/12/05 19:49:17;;;;;;;15.13;12.40;;;1.20;96.30;;;;;;6218828;28;20214;-61
2021/12/05 19:52:18;;;;;;;20.13;15.03;;;1.20;96.20;;;;;;6233454;28;20200;-60
2021/12/05 19:55:19;;;;;;;22.33;15.63;;;1.20;96.30;;;;;;6209283;28;20205;-62
2021/12/05 19:58:20;;;;;;;22.70;17.03;;;1.20;96.30;;;;;;6227165;28;20247;-60
2021/12/05 20:01:22;;;;;;;23.83;16.73;;;1.20;96.20;;;;;;6214329;28;20202;-61
2021/12/05 20:04:23;;;;;;;18.23;13.70;;;1.30;96.20;;;;;;6193513;28;20204;-60
2021/12/05 20:07:24;;;;;;;20.00;14.97;;;1.20;96.10;;;;;;6202087;28;20195;-61
2021/12/05 20:10:31;;;;;;;24.47;16.80;;;1.20;96.10;;;;;;6202202;28;20200;-67
2021/12/05 20:13:33;;;;;;;22.97;16.37;;;1.30;96.20;;;;;;6209191;28;20194;-61
2021/12/05 20:16:34;;;;;;;24.33;17.57;;;1.30;96.00;;;;;;6190323;28;20219;-64
2021/12/05 20:19:35;;;;;;;21.77;14.60;;;1.30;96.00;;;;;;6203646;28;20275;-64
2021/12/05 20:22:38;;;;;;;22.47;14.57;;;1.30;95.80;;;;;;6230948;28;20195;-64
2021/12/05 20:25:39;;;;;;;19.67;14.47;;;1.30;95.90;;;;;;6220307;28;20310;-64
2021/12/05 20:28:41;;;;;;;19.17;15.37;;;1.30;95.80;;;;;;6197327;28;20250;-64
2021/12/05 20:31:42;;;;;;;14.73;11.07;;;1.30;95.80;;;;;;6211955;28;20214;-64
2021/12/05 20:34:44;;;;;;;20.03;14.67;;;1.30;95.90;;;;;;6213558;28;20207;-63
2021/12/05 20:37:56;;;;;;;19.83;12.13;;;1.30;96.00;;;;;;6175054;28;20234;-64
2021/12/05 20:40:57;;;;;;;12.23;9.50;;;1.30;96.10;;;;;;6207228;28;20211;-63
2021/12/05 20:43:58;;;;;;;11.80;7.83;;;1.30;96.10;;;;;;6225544;28;20193;-63
2021/12/05 20:46:59;;;;;;;10.60;8.33;;;1.30;96.00;;;;;;6196634;28;20204;-63
2021/12/05 20:50:03;;;;;;;9.70;8.50;;;1.30;96.10;;;;;;6177032;28;20189;-63
2021/12/05 20:53:07;;;;;;;11.70;7.77;;;1.30;96.10;;;;;;6192950;28;20286;-63
2021/12/05 20:56:09;;;;;;;11.23;8.13;;;1.30;96.20;;;;;;6223462;28;20322;-63
2021/12/05 20:59:11;;;;;;;13.07;8.80;;;1.30;96.20;;;;;;6208893;28;20183;-63
2021/12/05 21:02:11;;;;;;;13.60;8.77;;;1.30;96.10;;;;;;6208177;28;20196;-63
2021/12/05 21:05:15;;;;;;;11.00;7.83;;;1.30;96.10;;;;;;6200536;28;20261;-63
2021/12/05 21:08:17;;;;;;;10.20;7.50;;;1.30;96.10;;;;;;6200686;28;20515;-63
2021/12/05 21:11:21;;;;;;;10.10;7.47;;;1.30;96.10;;;;;;6200993;28;20227;-63
2021/12/05 21:14:22;;;;;;;7.17;5.77;;;1.30;96.10;;;;;;6200193;28;20196;-63
2021/12/05 21:17:23;;;;;;;9.20;7.43;;;1.30;96.10;;;;;;6184796;28;20215;-63
2021/12/05 21:20:26;;;;;;;11.03;7.00;;;1.30;96.10;;;;;;6184223;28;20199;-63
2021/12/05 21:23:27;;;;;;;8.60;6.40;;;1.40;95.90;;;;;;6199904;28;20215;-63
2021/12/05 21:26:28;;;;;;;8.10;5.13;;;1.30;95.70;;;;;;6201211;28;20195;-62
2021/12/05 21:29:29;;;;;;;5.83;4.27;;;1.40;95.70;;;;;;6198291;28;20191;-62
2021/12/05 21:32:32;;;;;;;5.63;4.40;;;1.50;94.50;;;;;;6144591;28;20208;-63
2021/12/05 21:35:35;;;;;;;6.40;5.13;;;1.50;94.70;;;;;;6164441;28;20200;-63
2021/12/05 21:38:36;;;;;;;5.73;4.10;;;1.50;94.70;;;;;;6200405;28;20314;-63
2021/12/05 21:41:37;;;;;;;5.60;4.13;;;1.40;94.90;;;;;;6200372;28;20196;-62
2021/12/05 21:44:38;;;;;;;4.43;3.57;;;1.50;95.20;;;;;;6189588;28;20282;-61